sensor_id;sensor_type;location;lat;lon;timestamp;P1;durP1;ratioP1;P2;durP2;ratioP2
54460;SDS011;69977;49.414;11.010;2024-01-15T00:00:45;43.77;;;16.43;;
54460;SDS011;69977;49.414;11.010;2024-01-15T00:03:10;33.37;;;15.37;;
54460;SDS011;69977;49.414;11.010;2024-01-15T00:05:36;29.57;;;14.13;;
54460;SDS011;69977;49.414;11.010;2024-01-15T00:08:02;35.57;;;16.10;;
54460;SDS011;69977;49.414;11.010;2024-01-15T00:10:28;31.03;;;15.40;;
54460;SDS011;69977;49.414;11.010;2024-01-15T00:12:54;32.57;;;14.70;;
54460;SDS011;69977;49.414;11.010;2024-01-15T00:15:20;30.90;;;14.53;;
54460;SDS011;69977;49.414;11.010;2024-01-15T00:17:46;34.83;;;16.67;;
54460;SDS011;69977;49.414;11.010;2024-01-15T00:20:11;27.73;;;15.13;;
54460;SDS011;69977;49.414;11.010;2024-01-15T00:22:37;30.27;;;13.80;;
54460;SDS011;69977;49.414;11.010;2024-01-15T00:25:04;32.10;;;15.40;;
54460;SDS011;69977;49.414;11.010;2024-01-15T00:27:30;33.20;;;16.03;;
54460;SDS011;69977;49.414;11.010;2024-01-15T00:29:56;29.73;;;14.10;;
54460;SDS011;69977;49.414;11.010;2024-01-15T00:32:21;30.43;;;14.97;;
54460;SDS011;69977;49.414;11.010;2024-01-15T00:34:47;36.77;;;16.17;;
54460;SDS011;69977;49.414;11.010;2024-01-15T00:37:13;27.47;;;12.27;;
54460;SDS011;69977;49.414;11.010;2024-01-15T00:39:39;30.37;;;14.43;;
54460;SDS011;69977;49.414;11.010;2024-01-15T00:42:05;32.67;;;14.33;;
54460;SDS011;69977;49.414;11.010;2024-01-15T00:44:31;32.27;;;14.30;;
54460;SDS011;69977;49.414;11.010;2024-01-15T00:46:56;26.27;;;13.20;;
54460;SDS011;69977;49.414;11.010;2024-01-15T00:49:22;31.87;;;14.30;;
54460;SDS011;69977;49.414;11.010;2024-01-15T00:51:48;32.03;;;14.47;;
54460;SDS011;69977;49.414;11.010;2024-01-15T00:54:14;34.00;;;14.37;;
54460;SDS011;69977;49.414;11.010;2024-01-15T00:56:39;27.20;;;13.83;;
54460;SDS011;69977;49.414;11.010;2024-01-15T00:59:05;28.03;;;14.50;;
54460;SDS011;69977;49.414;11.010;2024-01-15T01:01:31;32.83;;;14.63;;
54460;SDS011;69977;49.414;11.010;2024-01-15T01:03:57;31.63;;;13.87;;
54460;SDS011;69977;49.414;11.010;2024-01-15T01:06:23;30.87;;;15.10;;
54460;SDS011;69977;49.414;11.010;2024-01-15T01:08:48;30.37;;;15.33;;
54460;SDS011;69977;49.414;11.010;2024-01-15T01:11:15;26.10;;;13.10;;
54460;SDS011;69977;49.414;11.010;2024-01-15T01:13:41;33.23;;;14.83;;
54460;SDS011;69977;49.414;11.010;2024-01-15T01:16:07;32.30;;;15.03;;
54460;SDS011;69977;49.414;11.010;2024-01-15T01:18:33;34.70;;;14.77;;
54460;SDS011;69977;49.414;11.010;2024-01-15T01:20:59;28.00;;;13.90;;
54460;SDS011;69977;49.414;11.010;2024-01-15T01:23:25;26.40;;;14.43;;
54460;SDS011;69977;49.414;11.010;2024-01-15T01:25:51;32.57;;;13.77;;
54460;SDS011;69977;49.414;11.010;2024-01-15T01:28:17;29.37;;;13.33;;
54460;SDS011;69977;49.414;11.010;2024-01-15T01:30:43;31.33;;;14.67;;
54460;SDS011;69977;49.414;11.010;2024-01-15T01:33:09;29.57;;;14.33;;
54460;SDS011;69977;49.414;11.010;2024-01-15T01:35:35;29.10;;;13.20;;
54460;SDS011;69977;49.414;11.010;2024-01-15T01:38:01;32.70;;;14.67;;
54460;SDS011;69977;49.414;11.010;2024-01-15T01:40:27;28.00;;;13.70;;
54460;SDS011;69977;49.414;11.010;2024-01-15T01:42:52;24.57;;;13.40;;
54460;SDS011;69977;49.414;11.010;2024-01-15T01:45:18;32.37;;;15.07;;
54460;SDS011;69977;49.414;11.010;2024-01-15T01:47:44;29.83;;;13.07;;
54460;SDS011;69977;49.414;11.010;2024-01-15T01:50:10;28.17;;;13.77;;
54460;SDS011;69977;49.414;11.010;2024-01-15T01:52:38;36.13;;;15.37;;
54460;SDS011;69977;49.414;11.010;2024-01-15T01:55:04;26.53;;;12.20;;
54460;SDS011;69977;49.414;11.010;2024-01-15T01:57:31;30.70;;;12.93;;
54460;SDS011;69977;49.414;11.010;2024-01-15T01:59:59;28.87;;;13.47;;
54460;SDS011;69977;49.414;11.010;2024-01-15T02:02:36;22.90;;;11.17;;
54460;SDS011;69977;49.414;11.010;2024-01-15T02:05:03;26.40;;;11.87;;
54460;SDS011;69977;49.414;11.010;2024-01-15T02:07:30;27.90;;;14.23;;
54460;SDS011;69977;49.414;11.010;2024-01-15T02:09:57;25.30;;;11.57;;
54460;SDS011;69977;49.414;11.010;2024-01-15T02:12:23;24.73;;;12.23;;
54460;SDS011;69977;49.414;11.010;2024-01-15T02:14:49;28.23;;;11.90;;
54460;SDS011;69977;49.414;11.010;2024-01-15T02:17:14;27.13;;;12.73;;
54460;SDS011;69977;49.414;11.010;2024-01-15T02:19:40;26.67;;;13.03;;
54460;SDS011;69977;49.414;11.010;2024-01-15T02:22:06;28.83;;;12.63;;
54460;SDS011;69977;49.414;11.010;2024-01-15T02:24:32;26.53;;;12.40;;
54460;SDS011;69977;49.414;11.010;2024-01-15T02:26:58;27.60;;;12.53;;
54460;SDS011;69977;49.414;11.010;2024-01-15T02:29:24;26.73;;;11.33;;
54460;SDS011;69977;49.414;11.010;2024-01-15T02:31:49;20.70;;;10.90;;
54460;SDS011;69977;49.414;11.010;2024-01-15T02:34:15;23.63;;;11.53;;
54460;SDS011;69977;49.414;11.010;2024-01-15T02:36:41;24.83;;;11.80;;
54460;SDS011;69977;49.414;11.010;2024-01-15T02:39:07;24.50;;;12.27;;
54460;SDS011;69977;49.414;11.010;2024-01-15T02:41:33;23.07;;;11.50;;
54460;SDS011;69977;49.414;11.010;2024-01-15T02:43:59;25.67;;;10.87;;
54460;SDS011;69977;49.414;11.010;2024-01-15T02:46:25;20.40;;;10.07;;
54460;SDS011;69977;49.414;11.010;2024-01-15T02:48:50;25.33;;;11.77;;
54460;SDS011;69977;49.414;11.010;2024-01-15T02:51:16;16.10;;;8.70;;
54460;SDS011;69977;49.414;11.010;2024-01-15T02:53:42;24.00;;;10.53;;
54460;SDS011;69977;49.414;11.010;2024-01-15T02:56:08;23.83;;;10.27;;
54460;SDS011;69977;49.414;11.010;2024-01-15T02:58:34;22.53;;;11.03;;
54460;SDS011;69977;49.414;11.010;2024-01-15T03:00:59;20.10;;;10.50;;
54460;SDS011;69977;49.414;11.010;2024-01-15T03:03:25;21.50;;;9.67;;
54460;SDS011;69977;49.414;11.010;2024-01-15T03:05:51;27.43;;;11.67;;
54460;SDS011;69977;49.414;11.010;2024-01-15T03:08:17;24.87;;;11.10;;
54460;SDS011;69977;49.414;11.010;2024-01-15T03:10:43;24.33;;;11.60;;
54460;SDS011;69977;49.414;11.010;2024-01-15T03:13:09;22.17;;;9.63;;
54460;SDS011;69977;49.414;11.010;2024-01-15T03:15:34;30.10;;;11.27;;
54460;SDS011;69977;49.414;11.010;2024-01-15T03:18:00;16.63;;;9.63;;
54460;SDS011;69977;49.414;11.010;2024-01-15T03:20:26;18.47;;;9.13;;
54460;SDS011;69977;49.414;11.010;2024-01-15T03:22:52;21.93;;;10.03;;
54460;SDS011;69977;49.414;11.010;2024-01-15T03:25:18;21.03;;;9.83;;
54460;SDS011;69977;49.414;11.010;2024-01-15T03:27:43;10.90;;;6.83;;
54460;SDS011;69977;49.414;11.010;2024-01-15T03:30:09;21.53;;;10.20;;
54460;SDS011;69977;49.414;11.010;2024-01-15T03:32:36;20.17;;;9.23;;
54460;SDS011;69977;49.414;11.010;2024-01-15T03:35:01;16.80;;;10.07;;
54460;SDS011;69977;49.414;11.010;2024-01-15T03:37:27;21.57;;;9.70;;
54460;SDS011;69977;49.414;11.010;2024-01-15T03:39:53;23.00;;;9.50;;
54460;SDS011;69977;49.414;11.010;2024-01-15T03:42:19;17.40;;;8.97;;
54460;SDS011;69977;49.414;11.010;2024-01-15T03:44:45;19.63;;;10.30;;
54460;SDS011;69977;49.414;11.010;2024-01-15T03:47:11;17.63;;;8.93;;
54460;SDS011;69977;49.414;11.010;2024-01-15T03:49:36;18.60;;;9.03;;
54460;SDS011;69977;49.414;11.010;2024-01-15T03:52:02;16.20;;;9.53;;
54460;SDS011;69977;49.414;11.010;2024-01-15T03:54:28;21.63;;;9.20;;
54460;SDS011;69977;49.414;11.010;2024-01-15T03:56:54;20.43;;;9.23;;
54460;SDS011;69977;49.414;11.010;2024-01-15T03:59:20;18.30;;;8.83;;
54460;SDS011;69977;49.414;11.010;2024-01-15T04:01:49;15.53;;;8.33;;
54460;SDS011;69977;49.414;11.010;2024-01-15T04:04:18;17.93;;;9.50;;
54460;SDS011;69977;49.414;11.010;2024-01-15T04:06:44;19.20;;;9.80;;
54460;SDS011;69977;49.414;11.010;2024-01-15T04:09:09;18.33;;;8.70;;
54460;SDS011;69977;49.414;11.010;2024-01-15T04:11:37;20.50;;;9.63;;
54460;SDS011;69977;49.414;11.010;2024-01-15T04:14:02;20.37;;;9.93;;
54460;SDS011;69977;49.414;11.010;2024-01-15T04:16:29;21.37;;;9.50;;
54460;SDS011;69977;49.414;11.010;2024-01-15T04:18:55;18.50;;;9.13;;
54460;SDS011;69977;49.414;11.010;2024-01-15T04:21:21;14.07;;;8.90;;
54460;SDS011;69977;49.414;11.010;2024-01-15T04:23:47;17.37;;;9.43;;
54460;SDS011;69977;49.414;11.010;2024-01-15T04:26:13;18.87;;;9.10;;
54460;SDS011;69977;49.414;11.010;2024-01-15T04:28:38;19.90;;;9.03;;
54460;SDS011;69977;49.414;11.010;2024-01-15T04:31:05;19.53;;;9.47;;
54460;SDS011;69977;49.414;11.010;2024-01-15T04:33:31;19.50;;;9.90;;
54460;SDS011;69977;49.414;11.010;2024-01-15T04:35:58;19.57;;;9.93;;
54460;SDS011;69977;49.414;11.010;2024-01-15T04:38:27;17.03;;;9.30;;
54460;SDS011;69977;49.414;11.010;2024-01-15T04:40:53;16.97;;;9.00;;
54460;SDS011;69977;49.414;11.010;2024-01-15T04:43:19;16.43;;;9.10;;
54460;SDS011;69977;49.414;11.010;2024-01-15T04:45:44;21.23;;;9.90;;
54460;SDS011;69977;49.414;11.010;2024-01-15T04:48:10;20.83;;;9.37;;
54460;SDS011;69977;49.414;11.010;2024-01-15T04:50:36;14.97;;;8.80;;
54460;SDS011;69977;49.414;11.010;2024-01-15T04:53:02;18.93;;;9.30;;
54460;SDS011;69977;49.414;11.010;2024-01-15T04:55:28;21.27;;;10.10;;
54460;SDS011;69977;49.414;11.010;2024-01-15T04:57:53;19.83;;;10.80;;
54460;SDS011;69977;49.414;11.010;2024-01-15T05:00:19;16.47;;;9.03;;
54460;SDS011;69977;49.414;11.010;2024-01-15T05:02:45;15.97;;;9.50;;
54460;SDS011;69977;49.414;11.010;2024-01-15T05:05:11;18.17;;;9.13;;
54460;SDS011;69977;49.414;11.010;2024-01-15T05:07:37;16.30;;;7.80;;
54460;SDS011;69977;49.414;11.010;2024-01-15T05:10:03;17.83;;;9.47;;
54460;SDS011;69977;49.414;11.010;2024-01-15T05:12:29;19.40;;;9.80;;
54460;SDS011;69977;49.414;11.010;2024-01-15T05:14:55;18.97;;;9.77;;
54460;SDS011;69977;49.414;11.010;2024-01-15T05:17:20;19.03;;;9.07;;
54460;SDS011;69977;49.414;11.010;2024-01-15T05:19:46;18.57;;;9.40;;
54460;SDS011;69977;49.414;11.010;2024-01-15T05:22:12;18.40;;;9.77;;
54460;SDS011;69977;49.414;11.010;2024-01-15T05:24:38;19.90;;;9.50;;
54460;SDS011;69977;49.414;11.010;2024-01-15T05:27:04;14.77;;;8.23;;
54460;SDS011;69977;49.414;11.010;2024-01-15T05:29:29;17.87;;;9.17;;
54460;SDS011;69977;49.414;11.010;2024-01-15T05:31:55;16.07;;;9.13;;
54460;SDS011;69977;49.414;11.010;2024-01-15T05:34:21;15.47;;;8.03;;
54460;SDS011;69977;49.414;11.010;2024-01-15T05:36:47;18.33;;;8.70;;
54460;SDS011;69977;49.414;11.010;2024-01-15T05:39:13;18.67;;;9.37;;
54460;SDS011;69977;49.414;11.010;2024-01-15T05:41:38;16.63;;;9.30;;
54460;SDS011;69977;49.414;11.010;2024-01-15T05:44:04;17.67;;;9.13;;
54460;SDS011;69977;49.414;11.010;2024-01-15T05:46:30;20.97;;;8.83;;
54460;SDS011;69977;49.414;11.010;2024-01-15T05:48:56;15.43;;;8.17;;
54460;SDS011;69977;49.414;11.010;2024-01-15T05:51:22;14.77;;;6.63;;
54460;SDS011;69977;49.414;11.010;2024-01-15T05:53:47;13.53;;;7.67;;
54460;SDS011;69977;49.414;11.010;2024-01-15T05:56:13;14.73;;;7.87;;
54460;SDS011;69977;49.414;11.010;2024-01-15T05:58:39;15.23;;;8.30;;
54460;SDS011;69977;49.414;11.010;2024-01-15T06:01:05;13.67;;;8.50;;
54460;SDS011;69977;49.414;11.010;2024-01-15T06:03:31;14.33;;;8.23;;
54460;SDS011;69977;49.414;11.010;2024-01-15T06:05:56;15.20;;;8.87;;
54460;SDS011;69977;49.414;11.010;2024-01-15T06:08:22;17.23;;;7.80;;
54460;SDS011;69977;49.414;11.010;2024-01-15T06:10:48;13.03;;;8.70;;
54460;SDS011;69977;49.414;11.010;2024-01-15T06:13:14;12.60;;;7.70;;
54460;SDS011;69977;49.414;11.010;2024-01-15T06:15:40;16.37;;;8.03;;
54460;SDS011;69977;49.414;11.010;2024-01-15T06:18:05;15.50;;;7.97;;
54460;SDS011;69977;49.414;11.010;2024-01-15T06:20:31;15.37;;;8.27;;
54460;SDS011;69977;49.414;11.010;2024-01-15T06:22:57;13.10;;;7.77;;
54460;SDS011;69977;49.414;11.010;2024-01-15T06:25:23;18.70;;;8.70;;
54460;SDS011;69977;49.414;11.010;2024-01-15T06:27:49;14.63;;;7.60;;
54460;SDS011;69977;49.414;11.010;2024-01-15T06:30:14;17.67;;;8.13;;
54460;SDS011;69977;49.414;11.010;2024-01-15T06:32:40;14.63;;;8.07;;
54460;SDS011;69977;49.414;11.010;2024-01-15T06:35:06;18.13;;;9.27;;
54460;SDS011;69977;49.414;11.010;2024-01-15T06:37:32;18.30;;;8.13;;
54460;SDS011;69977;49.414;11.010;2024-01-15T06:39:58;13.50;;;7.93;;
54460;SDS011;69977;49.414;11.010;2024-01-15T06:42:24;13.67;;;7.60;;
54460;SDS011;69977;49.414;11.010;2024-01-15T06:44:50;13.43;;;8.63;;
54460;SDS011;69977;49.414;11.010;2024-01-15T06:47:16;16.23;;;8.33;;
54460;SDS011;69977;49.414;11.010;2024-01-15T06:49:42;12.87;;;8.17;;
54460;SDS011;69977;49.414;11.010;2024-01-15T06:52:08;15.33;;;8.10;;
54460;SDS011;69977;49.414;11.010;2024-01-15T06:54:34;14.70;;;8.43;;
54460;SDS011;69977;49.414;11.010;2024-01-15T06:57:00;15.10;;;8.73;;
54460;SDS011;69977;49.414;11.010;2024-01-15T06:59:26;18.40;;;9.07;;
54460;SDS011;69977;49.414;11.010;2024-01-15T07:01:52;15.97;;;8.80;;
54460;SDS011;69977;49.414;11.010;2024-01-15T07:04:17;16.90;;;9.30;;
54460;SDS011;69977;49.414;11.010;2024-01-15T07:06:43;15.67;;;8.70;;
54460;SDS011;69977;49.414;11.010;2024-01-15T07:09:09;17.47;;;9.37;;
54460;SDS011;69977;49.414;11.010;2024-01-15T07:11:36;13.63;;;8.43;;
54460;SDS011;69977;49.414;11.010;2024-01-15T07:14:02;15.03;;;7.57;;
54460;SDS011;69977;49.414;11.010;2024-01-15T07:16:28;16.50;;;8.50;;
54460;SDS011;69977;49.414;11.010;2024-01-15T07:18:54;15.13;;;8.40;;
54460;SDS011;69977;49.414;11.010;2024-01-15T07:21:20;16.23;;;7.70;;
54460;SDS011;69977;49.414;11.010;2024-01-15T07:23:45;14.53;;;8.27;;
54460;SDS011;69977;49.414;11.010;2024-01-15T07:26:11;18.53;;;8.80;;
54460;SDS011;69977;49.414;11.010;2024-01-15T07:28:37;16.80;;;8.13;;
54460;SDS011;69977;49.414;11.010;2024-01-15T07:31:03;16.00;;;8.83;;
54460;SDS011;69977;49.414;11.010;2024-01-15T07:33:31;18.47;;;8.57;;
54460;SDS011;69977;49.414;11.010;2024-01-15T07:35:57;16.33;;;8.13;;
54460;SDS011;69977;49.414;11.010;2024-01-15T07:38:23;19.40;;;9.53;;
54460;SDS011;69977;49.414;11.010;2024-01-15T07:40:49;14.80;;;8.83;;
54460;SDS011;69977;49.414;11.010;2024-01-15T07:43:15;15.43;;;8.47;;
54460;SDS011;69977;49.414;11.010;2024-01-15T07:45:41;22.67;;;9.50;;
54460;SDS011;69977;49.414;11.010;2024-01-15T07:48:06;17.67;;;9.20;;
54460;SDS011;69977;49.414;11.010;2024-01-15T07:50:32;22.87;;;9.63;;
54460;SDS011;69977;49.414;11.010;2024-01-15T07:52:58;15.90;;;9.53;;
54460;SDS011;69977;49.414;11.010;2024-01-15T07:55:24;13.83;;;8.53;;
54460;SDS011;69977;49.414;11.010;2024-01-15T07:57:49;15.90;;;8.17;;
54460;SDS011;69977;49.414;11.010;2024-01-15T08:00:17;18.53;;;9.43;;
54460;SDS011;69977;49.414;11.010;2024-01-15T08:02:43;13.63;;;8.40;;
54460;SDS011;69977;49.414;11.010;2024-01-15T08:05:08;16.03;;;8.70;;
54460;SDS011;69977;49.414;11.010;2024-01-15T08:07:34;13.27;;;7.93;;
54460;SDS011;69977;49.414;11.010;2024-01-15T08:10:00;12.67;;;7.40;;
54460;SDS011;69977;49.414;11.010;2024-01-15T08:12:26;12.37;;;7.73;;
54460;SDS011;69977;49.414;11.010;2024-01-15T08:14:51;12.13;;;7.00;;
54460;SDS011;69977;49.414;11.010;2024-01-15T08:17:17;11.33;;;7.50;;
54460;SDS011;69977;49.414;11.010;2024-01-15T08:19:43;11.50;;;8.37;;
54460;SDS011;69977;49.414;11.010;2024-01-15T08:22:09;11.07;;;7.70;;
54460;SDS011;69977;49.414;11.010;2024-01-15T08:24:35;14.60;;;7.43;;
54460;SDS011;69977;49.414;11.010;2024-01-15T08:27:01;12.13;;;8.37;;
54460;SDS011;69977;49.414;11.010;2024-01-15T08:29:27;14.20;;;7.60;;
54460;SDS011;69977;49.414;11.010;2024-01-15T08:31:53;10.90;;;6.93;;
54460;SDS011;69977;49.414;11.010;2024-01-15T08:34:18;12.07;;;7.30;;
54460;SDS011;69977;49.414;11.010;2024-01-15T08:36:44;14.03;;;7.77;;
54460;SDS011;69977;49.414;11.010;2024-01-15T08:39:10;16.67;;;8.10;;
54460;SDS011;69977;49.414;11.010;2024-01-15T08:41:36;13.67;;;7.83;;
54460;SDS011;69977;49.414;11.010;2024-01-15T08:44:02;14.17;;;7.70;;
54460;SDS011;69977;49.414;11.010;2024-01-15T08:46:28;11.37;;;6.60;;
54460;SDS011;69977;49.414;11.010;2024-01-15T08:48:54;12.37;;;7.13;;
54460;SDS011;69977;49.414;11.010;2024-01-15T08:51:20;11.63;;;7.20;;
54460;SDS011;69977;49.414;11.010;2024-01-15T08:53:46;12.20;;;7.63;;
54460;SDS011;69977;49.414;11.010;2024-01-15T08:56:11;10.10;;;6.20;;
54460;SDS011;69977;49.414;11.010;2024-01-15T08:58:37;12.53;;;7.30;;
54460;SDS011;69977;49.414;11.010;2024-01-15T09:01:03;11.60;;;7.37;;
54460;SDS011;69977;49.414;11.010;2024-01-15T09:03:29;13.93;;;7.23;;
54460;SDS011;69977;49.414;11.010;2024-01-15T09:05:56;9.70;;;6.43;;
54460;SDS011;69977;49.414;11.010;2024-01-15T09:08:21;8.97;;;5.83;;
54460;SDS011;69977;49.414;11.010;2024-01-15T09:10:47;12.83;;;7.27;;
54460;SDS011;69977;49.414;11.010;2024-01-15T09:13:13;10.13;;;6.67;;
54460;SDS011;69977;49.414;11.010;2024-01-15T09:15:39;12.37;;;6.60;;
54460;SDS011;69977;49.414;11.010;2024-01-15T09:18:05;10.43;;;6.83;;
54460;SDS011;69977;49.414;11.010;2024-01-15T09:20:30;12.13;;;7.10;;
54460;SDS011;69977;49.414;11.010;2024-01-15T09:22:56;12.93;;;6.43;;
54460;SDS011;69977;49.414;11.010;2024-01-15T09:25:22;11.80;;;7.20;;
54460;SDS011;69977;49.414;11.010;2024-01-15T09:27:48;10.03;;;6.80;;
54460;SDS011;69977;49.414;11.010;2024-01-15T09:30:14;11.37;;;6.60;;
54460;SDS011;69977;49.414;11.010;2024-01-15T09:32:40;11.10;;;6.63;;
54460;SDS011;69977;49.414;11.010;2024-01-15T09:35:06;11.20;;;6.77;;
54460;SDS011;69977;49.414;11.010;2024-01-15T09:37:32;10.83;;;7.07;;
54460;SDS011;69977;49.414;11.010;2024-01-15T09:39:59;12.50;;;5.80;;
54460;SDS011;69977;49.414;11.010;2024-01-15T09:42:25;13.57;;;6.57;;
54460;SDS011;69977;49.414;11.010;2024-01-15T09:44:51;9.33;;;6.73;;
54460;SDS011;69977;49.414;11.010;2024-01-15T09:47:18;9.13;;;5.70;;
54460;SDS011;69977;49.414;11.010;2024-01-15T09:49:47;10.67;;;6.33;;
54460;SDS011;69977;49.414;11.010;2024-01-15T09:52:13;11.77;;;6.80;;
54460;SDS011;69977;49.414;11.010;2024-01-15T09:54:43;9.73;;;6.40;;
54460;SDS011;69977;49.414;11.010;2024-01-15T09:57:09;11.33;;;6.70;;
54460;SDS011;69977;49.414;11.010;2024-01-15T09:59:36;11.30;;;6.33;;
54460;SDS011;69977;49.414;11.010;2024-01-15T10:02:04;11.97;;;6.07;;
54460;SDS011;69977;49.414;11.010;2024-01-15T10:04:31;9.83;;;6.77;;
54460;SDS011;69977;49.414;11.010;2024-01-15T10:06:56;8.00;;;4.93;;
54460;SDS011;69977;49.414;11.010;2024-01-15T10:09:25;10.20;;;5.83;;
54460;SDS011;69977;49.414;11.010;2024-01-15T10:11:51;8.70;;;6.03;;
54460;SDS011;69977;49.414;11.010;2024-01-15T10:14:18;11.50;;;6.33;;
54460;SDS011;69977;49.414;11.010;2024-01-15T10:16:44;8.57;;;5.83;;
54460;SDS011;69977;49.414;11.010;2024-01-15T10:19:10;8.93;;;6.07;;
54460;SDS011;69977;49.414;11.010;2024-01-15T10:21:36;10.80;;;5.97;;
54460;SDS011;69977;49.414;11.010;2024-01-15T10:24:03;9.00;;;6.47;;
54460;SDS011;69977;49.414;11.010;2024-01-15T10:26:29;11.07;;;6.73;;
54460;SDS011;69977;49.414;11.010;2024-01-15T10:28:57;10.63;;;7.10;;
54460;SDS011;69977;49.414;11.010;2024-01-15T10:31:24;10.57;;;7.23;;
54460;SDS011;69977;49.414;11.010;2024-01-15T10:33:51;11.10;;;6.47;;
54460;SDS011;69977;49.414;11.010;2024-01-15T10:36:17;11.03;;;7.60;;
54460;SDS011;69977;49.414;11.010;2024-01-15T10:38:44;9.93;;;6.90;;
54460;SDS011;69977;49.414;11.010;2024-01-15T10:41:10;10.17;;;7.43;;
54460;SDS011;69977;49.414;11.010;2024-01-15T10:43:36;9.87;;;6.67;;
54460;SDS011;69977;49.414;11.010;2024-01-15T10:46:02;8.27;;;6.23;;
54460;SDS011;69977;49.414;11.010;2024-01-15T10:48:28;8.63;;;6.80;;
54460;SDS011;69977;49.414;11.010;2024-01-15T10:50:56;10.47;;;7.03;;
54460;SDS011;69977;49.414;11.010;2024-01-15T10:53:23;9.93;;;6.37;;
54460;SDS011;69977;49.414;11.010;2024-01-15T10:55:53;11.53;;;6.57;;
54460;SDS011;69977;49.414;11.010;2024-01-15T10:58:19;9.80;;;6.53;;
54460;SDS011;69977;49.414;11.010;2024-01-15T11:00:46;11.60;;;7.93;;
54460;SDS011;69977;49.414;11.010;2024-01-15T11:03:12;10.33;;;6.60;;
54460;SDS011;69977;49.414;11.010;2024-01-15T11:05:42;10.60;;;6.50;;
54460;SDS011;69977;49.414;11.010;2024-01-15T11:08:09;7.93;;;6.17;;
54460;SDS011;69977;49.414;11.010;2024-01-15T11:10:39;9.53;;;6.90;;
54460;SDS011;69977;49.414;11.010;2024-01-15T11:13:08;10.10;;;7.37;;
54460;SDS011;69977;49.414;11.010;2024-01-15T11:18:21;10.20;;;6.20;;
54460;SDS011;69977;49.414;11.010;2024-01-15T11:23:44;8.53;;;6.67;;
54460;SDS011;69977;49.414;11.010;2024-01-15T11:29:05;11.90;;;6.77;;
54460;SDS011;69977;49.414;11.010;2024-01-15T11:34:04;10.10;;;7.10;;
54460;SDS011;69977;49.414;11.010;2024-01-15T11:41:56;11.00;;;7.30;;
54460;SDS011;69977;49.414;11.010;2024-01-15T11:44:26;10.80;;;6.67;;
54460;SDS011;69977;49.414;11.010;2024-01-15T11:52:19;8.70;;;6.63;;
54460;SDS011;69977;49.414;11.010;2024-01-15T11:54:51;9.83;;;6.70;;
54460;SDS011;69977;49.414;11.010;2024-01-15T11:57:25;8.10;;;6.50;;
54460;SDS011;69977;49.414;11.010;2024-01-15T12:00:05;9.73;;;6.27;;
54460;SDS011;69977;49.414;11.010;2024-01-15T12:02:40;10.17;;;5.93;;
54460;SDS011;69977;49.414;11.010;2024-01-15T12:05:08;9.33;;;6.93;;
54460;SDS011;69977;49.414;11.010;2024-01-15T12:07:35;9.10;;;6.70;;
54460;SDS011;69977;49.414;11.010;2024-01-15T12:10:01;10.00;;;7.47;;
54460;SDS011;69977;49.414;11.010;2024-01-15T12:12:32;7.97;;;5.80;;
54460;SDS011;69977;49.414;11.010;2024-01-15T12:15:17;13.43;;;7.97;;
54460;SDS011;69977;49.414;11.010;2024-01-15T12:17:43;9.93;;;7.13;;
54460;SDS011;69977;49.414;11.010;2024-01-15T12:20:10;10.53;;;6.50;;
54460;SDS011;69977;49.414;11.010;2024-01-15T12:22:37;8.97;;;6.50;;
54460;SDS011;69977;49.414;11.010;2024-01-15T12:25:03;11.90;;;7.43;;
54460;SDS011;69977;49.414;11.010;2024-01-15T12:27:29;10.13;;;7.13;;
54460;SDS011;69977;49.414;11.010;2024-01-15T12:29:55;10.77;;;7.00;;
54460;SDS011;69977;49.414;11.010;2024-01-15T12:32:23;7.93;;;6.43;;
54460;SDS011;69977;49.414;11.010;2024-01-15T12:34:49;9.03;;;6.90;;
54460;SDS011;69977;49.414;11.010;2024-01-15T12:37:18;10.17;;;7.10;;
54460;SDS011;69977;49.414;11.010;2024-01-15T12:39:47;9.63;;;7.17;;
54460;SDS011;69977;49.414;11.010;2024-01-15T12:42:16;9.13;;;6.50;;
54460;SDS011;69977;49.414;11.010;2024-01-15T12:44:43;9.97;;;6.70;;
54460;SDS011;69977;49.414;11.010;2024-01-15T12:47:10;10.30;;;6.97;;
54460;SDS011;69977;49.414;11.010;2024-01-15T12:49:39;10.83;;;7.03;;
54460;SDS011;69977;49.414;11.010;2024-01-15T12:52:07;9.37;;;6.00;;
54460;SDS011;69977;49.414;11.010;2024-01-15T12:54:34;8.60;;;5.53;;
54460;SDS011;69977;49.414;11.010;2024-01-15T12:57:00;10.07;;;5.67;;
54460;SDS011;69977;49.414;11.010;2024-01-15T12:59:26;8.33;;;5.43;;
54460;SDS011;69977;49.414;11.010;2024-01-15T13:01:52;8.73;;;6.20;;
54460;SDS011;69977;49.414;11.010;2024-01-15T13:04:22;7.90;;;6.03;;
54460;SDS011;69977;49.414;11.010;2024-01-15T13:06:49;9.37;;;5.87;;
54460;SDS011;69977;49.414;11.010;2024-01-15T13:09:16;7.73;;;5.60;;
54460;SDS011;69977;49.414;11.010;2024-01-15T13:11:42;7.63;;;5.50;;
54460;SDS011;69977;49.414;11.010;2024-01-15T13:14:12;8.43;;;5.97;;
54460;SDS011;69977;49.414;11.010;2024-01-15T13:16:41;9.63;;;6.27;;
54460;SDS011;69977;49.414;11.010;2024-01-15T13:19:08;7.53;;;5.23;;
54460;SDS011;69977;49.414;11.010;2024-01-15T13:21:39;8.90;;;6.37;;
54460;SDS011;69977;49.414;11.010;2024-01-15T13:24:06;7.97;;;5.83;;
54460;SDS011;69977;49.414;11.010;2024-01-15T13:26:33;9.37;;;6.20;;
54460;SDS011;69977;49.414;11.010;2024-01-15T13:28:59;9.23;;;5.70;;
54460;SDS011;69977;49.414;11.010;2024-01-15T13:31:26;8.40;;;5.33;;
54460;SDS011;69977;49.414;11.010;2024-01-15T13:33:53;8.83;;;5.97;;
54460;SDS011;69977;49.414;11.010;2024-01-15T13:36:20;6.57;;;5.17;;
54460;SDS011;69977;49.414;11.010;2024-01-15T13:38:46;7.43;;;4.93;;
54460;SDS011;69977;49.414;11.010;2024-01-15T13:41:12;9.13;;;5.93;;
54460;SDS011;69977;49.414;11.010;2024-01-15T13:43:38;7.80;;;5.87;;
54460;SDS011;69977;49.414;11.010;2024-01-15T13:46:04;7.17;;;5.37;;
54460;SDS011;69977;49.414;11.010;2024-01-15T13:48:30;9.70;;;5.13;;
54460;SDS011;69977;49.414;11.010;2024-01-15T13:50:57;6.67;;;5.53;;
54460;SDS011;69977;49.414;11.010;2024-01-15T13:53:24;7.83;;;5.63;;
54460;SDS011;69977;49.414;11.010;2024-01-15T13:55:51;8.77;;;5.63;;
54460;SDS011;69977;49.414;11.010;2024-01-15T13:58:17;9.43;;;5.70;;
54460;SDS011;69977;49.414;11.010;2024-01-15T14:00:43;6.97;;;5.47;;
54460;SDS011;69977;49.414;11.010;2024-01-15T14:03:09;7.73;;;5.83;;
54460;SDS011;69977;49.414;11.010;2024-01-15T14:05:35;8.43;;;5.70;;
54460;SDS011;69977;49.414;11.010;2024-01-15T14:08:01;9.17;;;6.13;;
54460;SDS011;69977;49.414;11.010;2024-01-15T14:10:27;9.43;;;6.37;;
54460;SDS011;69977;49.414;11.010;2024-01-15T14:12:52;8.93;;;5.83;;
54460;SDS011;69977;49.414;11.010;2024-01-15T14:15:18;9.13;;;6.37;;
54460;SDS011;69977;49.414;11.010;2024-01-15T14:17:46;7.93;;;6.00;;
54460;SDS011;69977;49.414;11.010;2024-01-15T14:20:12;9.47;;;6.57;;
54460;SDS011;69977;49.414;11.010;2024-01-15T14:22:38;8.70;;;6.40;;
54460;SDS011;69977;49.414;11.010;2024-01-15T14:25:04;10.07;;;6.97;;
54460;SDS011;69977;49.414;11.010;2024-01-15T14:27:30;9.03;;;6.10;;
54460;SDS011;69977;49.414;11.010;2024-01-15T14:29:57;8.57;;;6.83;;
54460;SDS011;69977;49.414;11.010;2024-01-15T14:32:23;9.77;;;7.07;;
54460;SDS011;69977;49.414;11.010;2024-01-15T14:34:49;9.77;;;6.83;;
54460;SDS011;69977;49.414;11.010;2024-01-15T14:37:15;9.50;;;6.70;;